aviador You're here:

KLQK Decoded Metar

in
Report Time2017-08-22 21:55:00
UTC Time2017-08-22 22:17:35
Flight Rules vfr VFR
Wind240° at 06 kt
W.Decomp.*RWY 23: 5.9 kt HW 1.0 kt RCW
W.Rank240° ranks 6
Current wind is above 240° avg. (5.9)
Visibility9999 m
Phenomena:N/A
Clouds:N/A
Expected CloudBase > 5,200 ft AGL from Temp-Dew spread
CeilingNone
Temp33°C
Dew Point20°C (46% RH)
Heat Index35.2°C
QNH1016 hPa
Raw Report
METAR KLQK 222155Z AUTO 24006KT 10SM CLR 33/20 A2999 RMK AO2 T03250198=

Extra information for KLQK:More info

Social comments